Time;durP1;ratioP1;P1;durP2;ratioP2;P2;SDS_P1;SDS_P2;PMS_P1;PMS_P2;Temp;Humidity;BMP_temperature;BMP_pressure;BME280_temperature;BME280_humidity;BME280_pressure;Samples;Min_cycle;Max_cycle;Signal;HPM_P1;HPM_P2
2022/10/06 00:00:37;;;;;;;15.13;6.88;;;;;;;13.72;84.44;100691.41;5043875;28;20086;-90
2022/10/06 00:03:04;;;;;;;15.27;7.38;;;;;;;13.67;84.29;100689.97;5057490;28;20044;-90
2022/10/06 00:05:31;;;;;;;16.45;6.70;;;;;;;13.65;84.14;100693.78;5058761;28;20056;-90
2022/10/06 00:07:58;;;;;;;12.32;6.90;;;;;;;13.62;83.97;100691.38;5071890;28;20401;-90
2022/10/06 00:10:25;;;;;;;13.32;7.75;;;;;;;13.61;84.17;100695.88;5059010;28;20035;-89
2022/10/06 00:12:52;;;;;;;13.52;7.00;;;;;;;13.59;84.23;100708.50;5074925;28;20718;-89
2022/10/06 00:15:25;;;;;;;17.52;6.45;;;;;;;13.61;83.96;100711.88;5089948;28;20097;-89
2022/10/06 00:17:51;;;;;;;12.15;6.72;;;;;;;13.60;84.34;100717.34;5050735;28;20044;-89
2022/10/06 00:20:18;;;;;;;15.63;6.63;;;;;;;13.56;84.01;100719.44;5069561;28;20036;-89
2022/10/06 00:22:47;;;;;;;18.13;7.53;;;;;;;13.62;84.06;100729.56;5069596;28;20503;-89
2022/10/06 00:25:17;;;;;;;22.25;7.95;;;;;;;13.57;84.15;100730.97;5057409;28;20048;-89
2022/10/06 00:27:46;;;;;;;26.08;7.38;;;;;;;13.61;84.27;100733.22;5083383;28;20048;-89
2022/10/06 00:30:23;;;;;;;14.63;7.90;;;;;;;13.61;84.29;100730.56;5039944;28;20055;-89
2022/10/06 00:32:59;;;;;;;12.60;7.40;;;;;;;13.53;83.71;100727.69;5069981;28;20487;-89
2022/10/06 00:35:32;;;;;;;13.40;7.35;;;;;;;13.55;83.87;100720.41;5050245;28;20051;-89
2022/10/06 00:37:59;;;;;;;16.42;7.85;;;;;;;13.63;83.74;100727.75;5061054;28;20040;-88
2022/10/06 00:40:27;;;;;;;13.27;7.80;;;;;;;13.62;83.81;100718.06;5074923;28;20059;-89
2022/10/06 00:43:01;;;;;;;22.40;8.70;;;;;;;13.51;83.92;100723.47;5067492;28;20056;-88
2022/10/06 00:45:33;;;;;;;16.33;8.07;;;;;;;13.61;84.61;100725.22;5077659;28;20043;-88
2022/10/06 00:48:06;;;;;;;16.58;8.43;;;;;;;13.60;84.15;100736.03;5090911;28;20048;-88
2022/10/06 00:50:34;;;;;;;12.95;7.13;;;;;;;13.64;84.11;100730.28;5055471;28;20052;-88
2022/10/06 00:53:01;;;;;;;25.60;8.15;;;;;;;13.57;84.24;100733.63;5076566;28;20051;-88
2022/10/06 00:55:29;;;;;;;17.88;7.68;;;;;;;13.53;84.27;100743.72;5057371;28;20040;-89
2022/10/06 00:57:58;;;;;;;17.05;8.00;;;;;;;13.53;83.90;100746.38;5072365;28;20429;-89
2022/10/06 01:00:25;;;;;;;17.08;7.65;;;;;;;13.52;84.10;100747.38;5061258;28;20467;-89
2022/10/06 01:03:03;;;;;;;12.85;7.75;;;;;;;13.41;83.79;100742.13;5059542;28;20509;-89
2022/10/06 01:05:34;;;;;;;12.93;7.75;;;;;;;13.42;83.56;100747.31;5080470;28;20044;-89
2022/10/06 01:08:01;;;;;;;13.10;7.18;;;;;;;13.52;84.19;100750.03;5050944;28;20069;-88
2022/10/06 01:10:27;;;;;;;17.98;8.55;;;;;;;13.52;84.32;100755.38;5054745;28;20036;-89
2022/10/06 01:12:56;;;;;;;18.65;8.25;;;;;;;13.51;84.04;100758.16;5102541;28;20085;-89
2022/10/06 01:15:24;;;;;;;21.75;8.48;;;;;;;13.42;83.53;100760.66;5049731;28;21098;-90
2022/10/06 01:17:54;;;;;;;12.02;7.80;;;;;;;13.40;83.51;100748.41;5037665;28;20479;-89
2022/10/06 01:20:22;;;;;;;19.45;8.07;;;;;;;13.42;83.40;100749.13;5043034;28;20055;-89
2022/10/06 01:23:01;;;;;;;25.63;8.98;;;;;;;13.32;82.39;100748.22;5057448;28;20040;-89
2022/10/06 01:25:28;;;;;;;18.55;8.13;;;;;;;13.41;83.72;100758.97;5069314;28;20113;-90
2022/10/06 01:27:56;;;;;;;22.23;8.30;;;;;;;13.42;83.52;100749.97;5074177;28;20048;-89
2022/10/06 01:30:31;;;;;;;10.70;7.20;;;;;;;13.32;83.25;100759.75;5059619;28;20043;-89
2022/10/06 01:32:58;;;;;;;14.13;7.68;;;;;;;13.40;83.79;100754.59;5053604;28;20060;-89
2022/10/06 01:35:26;;;;;;;20.10;7.65;;;;;;;13.37;83.78;100760.19;5074484;28;20137;-90
2022/10/06 01:37:53;;;;;;;13.93;7.70;;;;;;;13.35;83.73;100767.47;5076021;28;20417;-89
2022/10/06 01:40:20;;;;;;;15.98;7.90;;;;;;;13.37;83.44;100759.34;5057582;28;20048;-88
2022/10/06 01:42:47;;;;;;;17.58;8.57;;;;;;;13.37;83.37;100756.69;5039569;28;20142;-89
2022/10/06 01:45:14;;;;;;;12.57;7.18;;;;;;;13.35;83.29;100762.13;5046811;28;20036;-89
2022/10/06 01:47:41;;;;;;;14.60;7.97;;;;;;;13.32;82.96;100764.25;5056794;28;20123;-89
2022/10/06 01:50:09;;;;;;;16.67;7.60;;;;;;;13.29;83.42;100776.00;5080902;28;20507;-89
2022/10/06 01:52:35;;;;;;;17.77;7.80;;;;;;;13.33;83.43;100779.25;5035356;28;20510;-89
2022/10/06 01:55:03;;;;;;;19.30;8.52;;;;;;;13.30;83.95;100768.84;5055506;28;20052;-90
2022/10/06 01:57:30;;;;;;;18.88;8.75;;;;;;;13.25;83.95;100772.75;5039341;28;20047;-90
2022/10/06 01:59:57;;;;;;;16.88;8.55;;;;;;;13.29;84.07;100778.69;5066860;28;20040;-89
2022/10/06 02:02:23;;;;;;;15.02;8.65;;;;;;;13.32;83.93;100786.41;5076452;28;20043;-89
2022/10/06 02:04:51;;;;;;;18.15;8.13;;;;;;;13.37;83.87;100797.53;5075138;28;20482;-89
2022/10/06 02:07:18;;;;;;;15.05;7.65;;;;;;;13.39;83.32;100797.44;5054592;28;20048;-88
2022/10/06 02:09:45;;;;;;;17.85;7.53;;;;;;;13.38;83.84;100796.59;5057676;28;20074;-88
2022/10/06 02:12:13;;;;;;;22.45;8.30;;;;;;;13.40;83.92;100801.78;5068368;28;20123;-88
2022/10/06 02:14:40;;;;;;;18.83;8.32;;;;;;;13.44;84.01;100801.38;5081828;28;20052;-88
2022/10/06 02:17:08;;;;;;;18.02;8.68;;;;;;;13.44;83.89;100806.72;5065205;28;20036;-88
2022/10/06 02:19:35;;;;;;;14.32;7.75;;;;;;;13.41;84.46;100806.16;5075378;28;20460;-89
2022/10/06 02:22:02;;;;;;;15.40;7.97;;;;;;;13.41;84.82;100806.16;5074192;28;20075;-90
2022/10/06 02:24:29;;;;;;;17.92;9.18;;;;;;;13.44;84.62;100808.56;5067424;28;20056;-89
2022/10/06 02:26:56;;;;;;;15.48;8.82;;;;;;;13.46;84.19;100811.94;5063831;28;20039;-89
2022/10/06 02:29:23;;;;;;;14.65;8.90;;;;;;;13.51;84.13;100822.19;5072344;28;20452;-89
2022/10/06 02:31:51;;;;;;;20.08;9.10;;;;;;;13.48;84.34;100817.97;5057404;28;20040;-89
2022/10/06 02:34:17;;;;;;;20.20;8.25;;;;;;;13.42;84.24;100823.84;5072405;28;20456;-88
2022/10/06 02:36:44;;;;;;;16.00;8.75;;;;;;;13.37;84.36;100829.56;5079527;28;20088;-89
2022/10/06 02:39:11;;;;;;;14.80;8.30;;;;;;;13.32;84.65;100829.09;5062053;28;20048;-88
2022/10/06 02:41:39;;;;;;;15.88;8.20;;;;;;;13.35;84.80;100841.31;5073074;28;20484;-88
2022/10/06 02:44:06;;;;;;;16.80;8.77;;;;;;;13.38;84.52;100838.41;5065745;28;20200;-88
2022/10/06 02:46:33;;;;;;;14.63;8.30;;;;;;;13.37;85.10;100839.38;5055402;28;20426;-88
2022/10/06 02:49:00;;;;;;;17.42;7.85;;;;;;;13.34;85.25;100843.16;5061813;28;20372;-88
2022/10/06 02:51:28;;;;;;;15.63;8.05;;;;;;;13.41;85.40;100862.19;5062096;28;20044;-88
2022/10/06 02:53:55;;;;;;;13.10;8.40;;;;;;;13.43;85.31;100857.53;5076200;28;20040;-88
2022/10/06 02:56:23;;;;;;;15.70;8.88;;;;;;;13.48;85.04;100858.00;5059341;28;20069;-88
2022/10/06 02:58:52;;;;;;;20.05;7.88;;;;;;;13.48;85.17;100858.00;5037847;28;20517;-88
2022/10/06 03:01:28;;;;;;;15.55;7.85;;;;;;;13.50;85.63;100863.22;5042066;28;20038;-89
2022/10/06 03:04:05;;;;;;;17.52;8.48;;;;;;;13.52;86.09;100863.94;5073232;28;20048;-88
2022/10/06 03:06:33;;;;;;;18.33;9.65;;;;;;;13.57;85.79;100859.88;5076849;28;20039;-88
2022/10/06 03:09:15;;;;;;;18.20;8.25;;;;;;;13.61;85.71;100861.34;5053837;28;20143;-88
2022/10/06 03:11:42;;;;;;;18.35;8.40;;;;;;;13.62;85.99;100871.03;5058703;28;20032;-88
2022/10/06 03:14:17;;;;;;;11.88;7.40;;;;;;;13.54;86.07;100876.16;5063775;28;20114;-89
2022/10/06 03:16:50;;;;;;;20.52;8.98;;;;;;;13.58;85.73;100888.25;5044662;28;20739;-89
2022/10/06 03:19:22;;;;;;;18.70;8.30;;;;;;;13.55;86.22;100882.34;5074067;28;20119;-89
2022/10/06 03:21:49;;;;;;;18.15;8.63;;;;;;;13.60;85.73;100886.31;5051039;28;20054;-90
2022/10/06 03:24:16;;;;;;;20.42;8.90;;;;;;;13.60;86.08;100890.81;5055531;28;20052;-89
2022/10/06 03:26:47;;;;;;;19.35;8.80;;;;;;;13.61;86.24;100889.81;5072940;28;20108;-90
2022/10/06 03:29:16;;;;;;;18.67;9.32;;;;;;;13.62;86.02;100896.88;5055120;28;20176;-89
2022/10/06 03:31:47;;;;;;;24.15;8.35;;;;;;;13.54;86.15;100894.84;5035654;28;20125;-89
2022/10/06 03:34:14;;;;;;;15.65;8.25;;;;;;;13.57;85.38;100899.91;5068882;28;20051;-90
2022/10/06 03:36:43;;;;;;;13.93;7.38;;;;;;;13.56;85.14;100903.59;5039535;28;20051;-89
2022/10/06 03:39:10;;;;;;;14.30;7.85;;;;;;;13.56;85.63;100908.91;5056235;28;20510;-89
2022/10/06 03:41:38;;;;;;;14.68;8.02;;;;;;;13.62;85.23;100904.88;5052323;28;20072;-92
2022/10/06 03:44:07;;;;;;;18.40;8.00;;;;;;;13.55;85.98;100911.69;5048234;28;20044;-91
2022/10/06 03:46:36;;;;;;;20.10;8.02;;;;;;;13.60;85.78;100909.50;5045995;28;20100;-90
2022/10/06 03:49:06;;;;;;;17.48;8.13;;;;;;;13.54;86.28;100918.88;5059856;28;20063;-88
2022/10/06 03:51:37;;;;;;;21.13;8.20;;;;;;;13.51;85.85;100912.91;5060417;28;20410;-88
2022/10/06 03:54:09;;;;;;;16.35;8.27;;;;;;;13.54;86.42;100924.19;5076689;28;20160;-88
2022/10/06 03:56:39;;;;;;;19.13;8.95;;;;;;;13.59;86.02;100921.16;5061047;28;20058;-86
2022/10/06 03:59:11;;;;;;;13.73;7.40;;;;;;;13.58;86.00;100928.28;5061646;28;20109;-86
2022/10/06 04:01:41;;;;;;;15.60;8.07;;;;;;;13.57;86.24;100934.63;5055474;28;20513;-87
2022/10/06 04:04:11;;;;;;;19.77;8.85;;;;;;;13.60;86.06;100930.84;5047649;28;20063;-92
2022/10/06 04:06:41;;;;;;;16.08;8.40;;;;;;;13.57;85.79;100934.63;5074762;28;20051;-87
2022/10/06 04:09:12;;;;;;;23.77;9.50;;;;;;;13.56;86.12;100935.59;5072906;28;20451;-87
2022/10/06 04:11:42;;;;;;;17.52;9.30;;;;;;;13.50;86.42;100945.94;5081876;28;20047;-86
2022/10/06 04:14:12;;;;;;;14.60;7.75;;;;;;;13.56;86.21;100946.28;5069337;28;20047;-87
2022/10/06 04:16:41;;;;;;;18.50;8.80;;;;;;;13.56;86.76;100950.75;5088816;28;20549;-86
2022/10/06 04:19:10;;;;;;;17.10;8.65;;;;;;;13.58;86.82;100954.97;5056831;28;20048;-90
2022/10/06 04:21:42;;;;;;;17.80;8.25;;;;;;;13.56;87.36;100962.28;5045383;28;20381;-89
2022/10/06 04:24:12;;;;;;;19.05;8.82;;;;;;;13.47;87.26;100979.06;5055941;28;20142;-90
2022/10/06 04:26:45;;;;;;;21.60;8.88;;;;;;;13.55;86.53;100973.91;5071809;28;20047;-89
2022/10/06 04:29:12;;;;;;;14.60;8.88;;;;;;;13.59;86.74;100979.88;5062823;28;20063;-89
2022/10/06 04:31:41;;;;;;;15.00;8.20;;;;;;;13.56;86.60;100983.63;5067402;28;20479;-90
2022/10/06 04:34:15;;;;;;;19.90;9.20;;;;;;;13.49;87.49;100995.78;5063048;28;20048;-89
2022/10/06 04:36:43;;;;;;;21.67;9.93;;;;;;;13.34;88.13;101008.56;5060721;28;20043;-88
2022/10/06 04:39:13;;;;;;;15.45;8.88;;;;;;;13.44;87.45;100992.66;5068172;28;20044;-89
2022/10/06 04:41:46;;;;;;;18.75;9.18;;;;;;;13.49;87.46;101010.97;5075979;28;20067;-88
2022/10/06 04:44:18;;;;;;;23.92;8.95;;;;;;;13.57;87.41;101003.16;5054704;28;20078;-89
2022/10/06 04:46:45;;;;;;;22.60;9.35;;;;;;;13.58;87.85;101003.00;5058774;28;20498;-90
2022/10/06 04:49:13;;;;;;;13.15;8.32;;;;;;;13.66;88.01;101010.38;5059350;28;20043;-90
2022/10/06 04:51:47;;;;;;;20.30;8.55;;;;;;;13.70;88.63;101017.19;5043140;28;20035;-88
2022/10/06 04:54:14;;;;;;;17.42;8.60;;;;;;;13.78;88.92;101009.38;5062803;28;20051;-89
2022/10/06 04:56:42;;;;;;;20.08;7.82;;;;;;;13.84;88.54;101010.69;5075735;28;20055;-88
2022/10/06 04:59:10;;;;;;;18.00;8.18;;;;;;;13.94;87.97;101019.63;5031806;28;20469;-87
2022/10/06 05:01:39;;;;;;;17.98;8.68;;;;;;;14.01;87.97;101028.81;5072798;28;20042;-86
2022/10/06 05:04:09;;;;;;;17.05;7.68;;;;;;;14.10;88.43;101038.72;5059073;28;20062;-87
2022/10/06 05:06:38;;;;;;;16.95;8.40;;;;;;;14.16;88.64;101034.69;5085021;28;20075;-86
2022/10/06 05:09:08;;;;;;;15.07;6.60;;;;;;;14.22;88.48;101038.66;5072154;28;20044;-86
2022/10/06 05:11:36;;;;;;;15.23;7.30;;;;;;;14.27;88.43;101053.34;5085087;28;20059;-86
2022/10/06 05:14:06;;;;;;;15.90;7.63;;;;;;;14.30;88.37;101041.56;5083300;28;20130;-86
2022/10/06 05:16:37;;;;;;;16.23;7.60;;;;;;;14.32;88.55;101039.56;5059499;28;20044;-86
2022/10/06 05:19:06;;;;;;;17.25;8.20;;;;;;;14.33;88.66;101046.63;5058182;28;20134;-87
2022/10/06 05:21:35;;;;;;;21.70;8.02;;;;;;;14.36;nan;101048.19;5077140;28;20039;-87
2022/10/06 05:24:02;;;;;;;14.82;7.30;;;;;;;14.36;88.71;101041.03;5063958;28;20044;-87
2022/10/06 05:26:30;;;;;;;20.15;8.18;;;;;;;14.39;88.79;101048.78;5080860;28;20040;-86
2022/10/06 05:28:59;;;;;;;14.82;7.57;;;;;;;14.40;88.98;101053.16;5071893;28;20119;-86
2022/10/06 05:31:31;;;;;;;16.63;7.22;;;;;;;14.42;88.80;101047.66;5087329;28;20067;-86
2022/10/06 05:34:01;;;;;;;21.17;7.65;;;;;;;14.42;88.96;101061.88;5067535;28;20135;-87
2022/10/06 05:36:30;;;;;;;14.02;7.00;;;;;;;14.44;88.99;101067.09;5055510;28;20052;-87
2022/10/06 05:38:57;;;;;;;18.02;7.10;;;;;;;14.46;88.82;101067.81;5086387;28;20043;-86
2022/10/06 05:41:30;;;;;;;18.15;7.03;;;;;;;14.43;89.01;101078.78;5090694;28;20454;-87
2022/10/06 05:44:00;;;;;;;14.38;7.15;;;;;;;14.47;89.21;101088.19;5090192;28;20048;-86
2022/10/06 05:46:29;;;;;;;20.98;6.88;;;;;;;14.49;89.39;101092.44;5072275;28;20036;-86
2022/10/06 05:48:59;;;;;;;13.52;6.85;;;;;;;14.51;89.54;101086.97;5073345;28;20119;-87
2022/10/06 05:51:31;;;;;;;15.73;7.60;;;;;;;14.51;88.96;101095.84;5056404;28;20079;-86
2022/10/06 05:54:01;;;;;;;16.75;7.43;;;;;;;14.52;89.29;101099.34;5051042;28;20048;-87
2022/10/06 05:56:28;;;;;;;13.52;6.70;;;;;;;14.52;89.40;101100.19;5070352;28;20036;-86
2022/10/06 05:58:57;;;;;;;21.38;7.35;;;;;;;14.53;89.62;101106.44;5081862;28;20498;-86
2022/10/06 06:01:30;;;;;;;15.98;6.90;;;;;;;14.54;89.87;101111.63;5072568;28;20075;-87
2022/10/06 06:04:00;;;;;;;15.50;7.10;;;;;;;14.53;90.00;101112.63;5083889;28;20435;-88
2022/10/06 06:06:29;;;;;;;14.60;6.93;;;;;;;14.56;89.90;101116.03;5088306;28;20050;-87
2022/10/06 06:09:02;;;;;;;12.15;6.28;;;;;;;14.55;90.14;101112.47;5044112;28;20075;-86
2022/10/06 06:11:30;;;;;;;17.17;6.78;;;;;;;14.56;90.27;101119.53;5073827;28;20114;-87
2022/10/06 06:13:59;;;;;;;12.25;6.13;;;;;;;14.56;90.34;101121.38;5043334;28;20398;-87
2022/10/06 06:16:27;;;;;;;17.17;6.88;;;;;;;14.57;90.34;101120.38;5073029;28;20470;-87
2022/10/06 06:18:54;;;;;;;18.40;7.10;;;;;;;14.57;90.46;101120.38;5065647;28;20509;-87
2022/10/06 06:21:21;;;;;;;11.95;5.47;;;;;;;14.57;90.59;101129.25;5079616;28;20042;-87
2022/10/06 06:23:49;;;;;;;14.73;6.47;;;;;;;14.60;90.63;101136.16;5052991;28;20048;-86
2022/10/06 06:26:28;;;;;;;11.60;6.28;;;;;;;14.55;90.60;101149.91;5079164;28;20082;-88
2022/10/06 06:29:01;;;;;;;14.75;6.55;;;;;;;14.61;90.69;101161.94;5092391;28;20109;-87
2022/10/06 06:31:31;;;;;;;15.20;7.05;;;;;;;14.61;90.68;101159.25;5086686;28;20429;-87
2022/10/06 06:33:59;;;;;;;14.85;6.95;;;;;;;14.64;90.70;101172.34;5059370;28;20377;-86
2022/10/06 06:36:34;;;;;;;21.33;6.75;;;;;;;14.64;91.00;101162.50;5078407;28;20036;-87
2022/10/06 06:39:07;;;;;;;12.48;5.55;;;;;;;14.63;91.13;101165.28;5076267;28;20647;-86
2022/10/06 06:41:36;;;;;;;15.40;6.70;;;;;;;14.66;91.21;101183.78;5078361;28;20043;-87
2022/10/06 06:44:12;;;;;;;21.17;6.95;;;;;;;14.67;91.38;101188.97;5078531;28;20043;-87
2022/10/06 06:46:49;;;;;;;14.98;6.75;;;;;;;14.69;90.96;101191.53;5072286;28;20047;-87
2022/10/06 06:49:19;;;;;;;13.07;6.90;;;;;;;14.72;91.50;101193.94;5083900;28;20048;-87
2022/10/06 06:51:52;;;;;;;;;;;;;;;14.53;93.07;101195.50;5069927;28;20403;-87
2022/10/06 06:54:21;;;;;;;14.60;6.07;;;;;;;14.71;91.76;101198.44;5062154;28;19998;-87
2022/10/06 06:56:55;;;;;;;17.38;6.35;;;;;;;14.74;91.61;101200.84;5081202;28;20036;-86
2022/10/06 06:59:22;;;;;;;12.95;5.15;;;;;;;14.77;91.48;101210.44;5067998;28;20055;-87
2022/10/06 07:01:52;;;;;;;12.77;4.47;;;;;;;14.84;90.48;101208.09;5079239;28;20028;-86
2022/10/06 07:04:20;;;;;;;11.40;4.22;;;;;;;14.88;90.60;101209.53;5064438;28;20035;-87
2022/10/06 07:06:57;;;;;;;14.15;5.80;;;;;;;14.94;90.67;101219.72;5079707;28;20048;-87
2022/10/06 07:09:29;;;;;;;12.73;5.28;;;;;;;14.97;90.84;101219.47;5081938;28;20043;-86
2022/10/06 07:12:04;;;;;;;9.35;4.80;;;;;;;14.99;89.99;101228.22;5067242;28;20141;-87
2022/10/06 07:14:31;;;;;;;17.25;5.15;;;;;;;15.00;89.79;101235.25;5072480;28;20043;-87
2022/10/06 07:25:28;;;;;;;8.63;3.33;;;;;;;15.04;89.51;101251.91;5052187;28;20066;-86
2022/10/06 07:28:01;;;;;;;12.50;3.85;;;;;;;15.08;89.12;101256.00;5072421;28;20036;-86
2022/10/06 07:30:37;;;;;;;10.30;3.20;;;;;;;15.09;88.36;101261.22;5077391;28;20551;-87
2022/10/06 07:33:13;;;;;;;11.70;3.47;;;;;;;15.11;88.36;101261.94;5079830;28;20040;-86
2022/10/06 07:35:41;;;;;;;11.73;4.35;;;;;;;15.15;88.20;101265.19;5086286;28;20040;-87
2022/10/06 07:38:09;;;;;;;8.93;3.47;;;;;;;15.19;88.37;101274.66;5072314;28;20495;-87
2022/10/06 07:40:40;;;;;;;8.95;3.50;;;;;;;15.21;88.41;101275.38;5082832;28;20044;-87
2022/10/06 07:43:21;;;;;;;9.40;3.55;;;;;;;15.22;88.38;101271.72;5072010;28;20042;-86
2022/10/06 07:45:50;;;;;;;11.63;3.08;;;;;;;15.24;87.82;101274.25;5082043;28;20044;-87
2022/10/06 07:48:24;;;;;;;14.05;3.17;;;;;;;15.23;87.64;101270.75;5076261;28;20032;-87
2022/10/06 07:50:57;;;;;;;;;;;;;;;15.05;87.15;101280.34;5064838;28;20048;-87
2022/10/06 07:53:28;;;;;;;7.47;2.83;;;;;;;15.19;86.99;101275.50;5076939;28;19965;-87
2022/10/06 07:56:04;;;;;;;8.80;2.58;;;;;;;15.20;86.20;101284.38;5080085;28;20044;-86
2022/10/06 07:58:36;;;;;;;5.93;2.83;;;;;;;15.20;86.01;101284.38;5069877;28;20123;-86
2022/10/06 08:01:05;;;;;;;9.95;3.08;;;;;;;15.24;85.88;101287.63;5105464;28;20035;-87
2022/10/06 08:03:32;;;;;;;8.10;2.65;;;;;;;15.27;85.70;101290.91;5079740;28;20047;-87
2022/10/06 08:06:00;;;;;;;6.35;1.98;;;;;;;15.29;85.26;101285.41;5109428;28;20048;-87
2022/10/06 08:08:31;;;;;;;6.32;2.33;;;;;;;15.30;85.25;101287.13;5077724;28;20039;-87
2022/10/06 08:10:58;;;;;;;5.60;2.20;;;;;;;15.35;85.23;101292.94;5076474;28;20040;-87
2022/10/06 08:13:27;;;;;;;11.57;2.63;;;;;;;15.34;82.76;101300.13;5063433;28;20043;-86
2022/10/06 08:15:55;;;;;;;5.60;1.80;;;;;;;15.39;82.03;101297.03;5078853;28;20035;-87
2022/10/06 08:18:24;;;;;;;6.57;2.00;;;;;;;15.39;82.17;101297.91;5108738;28;20082;-87
2022/10/06 08:21:16;;;;;;;8.18;2.00;;;;;;;15.37;80.96;101297.19;5069655;28;20059;-87
2022/10/06 08:23:44;;;;;;;8.75;1.95;;;;;;;15.44;80.93;101294.81;5084145;28;20039;-88
2022/10/06 08:26:12;;;;;;;6.03;1.95;;;;;;;15.47;79.72;101291.91;5075351;28;20424;-87
2022/10/06 08:28:43;;;;;;;15.35;2.40;;;;;;;15.49;79.31;101305.13;5072390;28;20040;-86
2022/10/06 08:31:11;;;;;;;6.93;1.70;;;;;;;15.52;80.44;101288.78;5061957;28;20043;-87
2022/10/06 08:33:38;;;;;;;7.78;2.25;;;;;;;15.53;80.14;101299.38;5079840;28;20426;-87
2022/10/06 08:36:13;;;;;;;16.35;2.30;;;;;;;15.58;80.56;101304.34;5090081;28;20479;-87
2022/10/06 08:38:40;;;;;;;12.02;2.22;;;;;;;15.63;79.44;101299.44;5073091;28;20040;-88
2022/10/06 08:41:20;;;;;;;9.10;2.58;;;;;;;15.58;78.01;101307.03;5080868;28;20437;-87
2022/10/06 08:44:01;;;;;;;9.48;2.25;;;;;;;15.60;78.85;101313.94;5078981;28;20039;-87
2022/10/06 08:46:36;;;;;;;12.48;2.13;;;;;;;15.69;78.52;101306.09;5073383;28;20044;-87
2022/10/06 08:49:04;;;;;;;8.13;2.20;;;;;;;15.76;77.42;101307.28;5089282;28;20048;-86
2022/10/06 08:52:03;;;;;;;8.00;2.20;;;;;;;15.65;76.67;101313.56;5089933;28;20040;-87
2022/10/06 08:54:48;;;;;;;11.27;2.63;;;;;;;15.75;75.89;101311.81;5076454;28;20089;-87
2022/10/06 08:57:23;;;;;;;11.60;2.20;;;;;;;15.75;75.24;101316.31;5092810;28;20050;-87
2022/10/06 08:59:52;;;;;;;10.73;2.85;;;;;;;15.77;75.27;101323.25;5070636;28;20101;-87
2022/10/06 09:02:26;;;;;;;10.02;1.90;;;;;;;15.75;75.90;101327.03;5076356;28;20126;-87
2022/10/06 09:04:56;;;;;;;11.63;2.53;;;;;;;15.81;75.56;101316.63;5103779;28;20131;-87
2022/10/06 09:07:47;;;;;;;11.25;2.45;;;;;;;15.75;74.89;101317.16;5084218;28;20445;-87
2022/10/06 09:10:20;;;;;;;11.73;2.30;;;;;;;15.88;73.98;101313.44;5089179;28;20043;-87
2022/10/06 09:13:07;;;;;;;17.63;2.85;;;;;;;15.75;72.74;101329.72;5077438;28;20509;-88
2022/10/06 09:15:49;;;;;;;10.10;2.20;;;;;;;15.84;73.66;101345.81;5059129;28;20440;-87
2022/10/06 09:18:21;;;;;;;9.55;2.30;;;;;;;15.78;70.83;101341.00;5073903;28;20040;-87
2022/10/06 09:21:00;;;;;;;9.80;2.20;;;;;;;15.75;72.81;101345.78;5086791;28;20100;-87
2022/10/06 09:23:48;;;;;;;9.05;2.05;;;;;;;15.82;73.87;101347.81;5076334;28;20047;-88
2022/10/06 09:26:23;;;;;;;9.07;2.40;;;;;;;15.79;73.14;101350.72;5070144;28;20442;-87
2022/10/06 09:28:50;;;;;;;11.43;1.85;;;;;;;15.87;73.43;101352.72;5090609;28;20506;-87
2022/10/06 09:31:26;;;;;;;8.07;2.05;;;;;;;15.89;73.48;101341.91;5059449;28;20042;-86
2022/10/06 09:33:58;;;;;;;10.70;2.08;;;;;;;16.00;73.85;101344.47;5071694;28;20143;-88
2022/10/06 09:36:25;;;;;;;11.63;2.20;;;;;;;16.00;73.87;101350.72;5075671;28;20036;-88
2022/10/06 09:38:54;;;;;;;13.07;1.98;;;;;;;16.04;73.96;101348.59;5059346;28;20054;-87
2022/10/06 09:41:39;;;;;;;11.95;2.50;;;;;;;15.95;71.32;101352.06;5071977;28;20047;-88
2022/10/06 09:44:20;;;;;;;11.45;2.03;;;;;;;15.84;70.10;101356.53;5103635;28;20056;-88
2022/10/06 09:46:47;;;;;;;11.75;2.08;;;;;;;15.86;70.55;101363.59;5074631;28;20043;-88
2022/10/06 09:49:24;;;;;;;10.45;2.00;;;;;;;15.88;69.84;101356.28;5061850;28;20078;-88
2022/10/06 09:52:12;;;;;;;16.65;1.83;;;;;;;15.90;69.67;101356.97;5074904;28;20032;-88
2022/10/06 09:54:42;;;;;;;9.05;2.05;;;;;;;15.95;70.49;101354.75;5082327;28;20044;-88
2022/10/06 09:57:13;;;;;;;10.57;2.10;;;;;;;15.97;70.13;101359.00;5086806;28;20089;-87
2022/10/06 09:59:45;;;;;;;8.73;1.90;;;;;;;16.04;70.97;101362.84;5068030;28;20039;-87
2022/10/06 10:02:27;;;;;;;7.70;1.63;;;;;;;15.99;67.67;101350.84;5086349;28;20036;-87
2022/10/06 10:04:56;;;;;;;14.25;2.17;;;;;;;16.11;68.59;101360.47;5086355;28;20040;-88
2022/10/06 10:07:24;;;;;;;15.30;2.58;;;;;;;16.15;69.00;101361.03;5064655;28;20105;-87
2022/10/06 10:09:53;;;;;;;9.98;2.22;;;;;;;16.15;68.02;101353.84;5069222;28;20054;-88
2022/10/06 10:12:24;;;;;;;14.60;2.28;;;;;;;16.17;68.29;101357.25;5071455;28;20047;-89
2022/10/06 10:14:51;;;;;;;14.30;2.97;;;;;;;16.24;68.02;101357.56;5083862;28;20054;-87
2022/10/06 10:17:31;;;;;;;9.52;1.75;;;;;;;16.23;67.23;101358.53;5081789;28;20067;-87
2022/10/06 10:19:59;;;;;;;8.02;1.88;;;;;;;16.30;67.37;101357.00;5091387;28;20044;-86
2022/10/06 10:22:39;;;;;;;7.53;1.80;;;;;;;16.27;66.86;101347.41;5084718;28;20482;-87
2022/10/06 10:25:19;;;;;;;15.00;2.20;;;;;;;16.21;66.18;101360.53;5081923;28;20090;-88
2022/10/06 10:27:53;;;;;;;8.95;1.60;;;;;;;16.26;67.03;101359.13;5062870;28;20067;-88
2022/10/06 10:30:20;;;;;;;14.30;2.22;;;;;;;16.36;68.46;101359.19;5073760;28;20499;-87
2022/10/06 10:32:50;;;;;;;7.80;2.08;;;;;;;16.41;67.79;101353.38;5058175;28;20368;-87
2022/10/06 10:35:22;;;;;;;6.07;1.65;;;;;;;16.47;67.89;101358.22;5069949;28;20441;-87
2022/10/06 10:37:50;;;;;;;7.50;2.13;;;;;;;16.51;68.11;101362.28;5076053;28;20047;-87
2022/10/06 10:40:36;;;;;;;11.77;2.22;;;;;;;16.56;67.75;101361.88;5080601;28;20453;-88
2022/10/06 10:43:18;;;;;;;9.15;2.10;;;;;;;16.54;66.93;101362.03;5080869;28;20052;-88
2022/10/06 10:45:49;;;;;;;11.60;2.40;;;;;;;16.46;66.30;101367.22;5079764;28;20097;-88
2022/10/06 10:48:21;;;;;;;11.77;2.20;;;;;;;16.46;67.36;101370.78;5059952;28;20044;-88
2022/10/06 10:51:06;;;;;;;16.02;2.80;;;;;;;16.49;67.45;101370.50;5081214;28;20449;-87
2022/10/06 10:53:42;;;;;;;7.40;2.15;;;;;;;16.49;67.90;101367.81;5086545;28;20039;-88
2022/10/06 10:56:11;;;;;;;11.90;2.70;;;;;;;16.50;67.40;101360.63;5085838;28;20129;-87
2022/10/06 10:58:39;;;;;;;12.90;2.13;;;;;;;16.54;68.34;101361.16;5075562;28;20044;-87
2022/10/06 11:01:18;;;;;;;14.88;2.15;;;;;;;16.57;67.62;101363.59;5089151;28;20462;-88
2022/10/06 11:03:55;;;;;;;18.50;2.90;;;;;;;16.59;66.59;101358.94;5085463;28;20127;-87
2022/10/06 11:06:45;;;;;;;8.13;1.58;;;;;;;16.50;65.42;101352.56;5047342;28;20456;-87
2022/10/06 11:09:22;;;;;;;11.90;2.05;;;;;;;16.64;65.00;101349.50;5056723;28;20066;-87
2022/10/06 11:11:57;;;;;;;13.80;2.30;;;;;;;16.64;65.14;101352.19;5077521;28;20058;-87
2022/10/06 11:14:34;;;;;;;10.02;1.80;;;;;;;16.66;66.03;101344.00;5077109;28;20044;-86
2022/10/06 11:17:26;;;;;;;17.25;2.50;;;;;;;16.68;65.27;101356.28;5086712;28;20059;-86
2022/10/06 11:20:07;;;;;;;4.45;1.88;;;;;;;16.73;65.61;101349.66;5083440;28;20075;-87
2022/10/06 11:22:37;;;;;;;8.68;2.28;;;;;;;16.85;65.88;101340.53;5104133;28;20039;-86
2022/10/06 11:25:19;;;;;;;18.02;3.35;;;;;;;16.87;66.24;101341.25;5090728;28;20040;-86
2022/10/06 11:27:49;;;;;;;13.23;2.30;;;;;;;16.91;66.11;101348.84;5075110;28;20044;-87
2022/10/06 11:30:18;;;;;;;10.25;3.08;;;;;;;16.96;64.84;101350.28;5076282;28;20138;-86
2022/10/06 11:33:10;;;;;;;11.38;1.98;;;;;;;16.89;62.81;101341.94;5088024;28;20463;-86
2022/10/06 11:35:40;;;;;;;9.82;2.35;;;;;;;16.95;63.21;101345.91;5088068;28;20044;-87
2022/10/06 11:38:14;;;;;;;8.02;2.33;;;;;;;16.89;61.45;101352.66;5077779;28;20059;-87
2022/10/06 11:41:06;;;;;;;11.93;2.53;;;;;;;16.82;61.51;101346.19;5077106;28;20078;-87
2022/10/06 11:44:02;;;;;;;10.65;2.10;;;;;;;16.82;61.10;101346.19;5095318;28;20052;-87
2022/10/06 11:46:34;;;;;;;11.73;2.28;;;;;;;16.95;62.87;101340.53;5101618;28;20437;-87